Time;durP1;ratioP1;P1;durP2;ratioP2;P2;SDS_P1;SDS_P2;PMS_P1;PMS_P2;Temp;Humidity;BMP_temperature;BMP_pressure;BME280_temperature;BME280_humidity;BME280_pressure;Samples;Min_cycle;Max_cycle;Signal;HPM_P1;HPM_P2
2022/08/26 00:04:49;;;;;;;13.30;6.00;;;26.60;73.40;;;;;;223849;1261;25232;-49
2022/08/26 00:09:53;;;;;;;12.50;5.40;;;26.60;73.30;;;;;;221388;1262;22539;-50
2022/08/26 00:14:56;;;;;;;17.30;6.60;;;26.60;73.20;;;;;;220960;1262;22688;-48
2022/08/26 00:19:59;;;;;;;11.30;6.00;;;26.50;73.10;;;;;;221375;1262;25519;-53
2022/08/26 00:25:02;;;;;;;11.50;5.60;;;26.50;72.90;;;;;;221726;1262;23024;-49
2022/08/26 00:30:08;;;;;;;13.20;6.10;;;26.50;72.90;;;;;;221371;1262;24073;-50
2022/08/26 00:35:12;;;;;;;14.40;6.00;;;26.50;73.40;;;;;;221444;1262;25281;-52
2022/08/26 00:40:18;;;;;;;17.50;6.00;;;26.50;73.20;;;;;;221394;1262;25348;-48
2022/08/26 00:45:21;;;;;;;13.30;5.40;;;26.40;73.50;;;;;;221369;1262;22544;-52
2022/08/26 00:50:32;;;;;;;12.90;6.90;;;26.50;73.10;;;;;;221745;1262;25239;-53
2022/08/26 00:55:40;;;;;;;12.40;6.20;;;26.40;73.10;;;;;;221406;1265;24217;-48
2022/08/26 01:00:48;;;;;;;11.80;5.70;;;26.50;73.00;;;;;;221140;1262;22561;-52
2022/08/26 01:05:56;;;;;;;10.10;5.50;;;26.40;72.90;;;;;;221205;1261;25236;-52
2022/08/26 01:10:59;;;;;;;11.70;5.60;;;26.40;72.70;;;;;;221130;1262;25306;-49
2022/08/26 01:16:04;;;;;;;14.00;5.60;;;26.40;73.10;;;;;;221393;1261;24192;-50
2022/08/26 01:21:41;;;;;;;9.90;5.70;;;26.40;72.60;;;;;;221558;1262;22531;-51
2022/08/26 01:26:44;;;;;;;10.10;5.40;;;26.40;72.80;;;;;;221419;1265;24264;-53
2022/08/26 01:31:51;;;;;;;9.40;5.90;;;26.40;72.80;;;;;;221507;1265;24532;-53
2022/08/26 01:37:00;;;;;;;11.10;5.50;;;26.40;72.70;;;;;;221269;1265;22598;-56
2022/08/26 01:42:06;;;;;;;13.90;5.80;;;26.40;72.60;;;;;;221406;1265;22697;-51
2022/08/26 01:47:14;;;;;;;14.10;5.40;;;26.30;72.50;;;;;;221144;1265;23941;-53
2022/08/26 01:52:22;;;;;;;9.90;5.50;;;26.30;72.80;;;;;;221083;1262;25449;-52
2022/08/26 01:57:29;;;;;;;9.20;5.60;;;26.30;72.70;;;;;;220920;1265;22618;-51
2022/08/26 02:02:32;;;;;;;8.80;4.70;;;26.30;72.40;;;;;;220736;1265;25316;-49
2022/08/26 02:07:34;;;;;;;9.30;4.40;;;26.30;72.50;;;;;;221074;1265;24312;-51
2022/08/26 02:12:38;;;;;;;8.20;4.50;;;26.30;72.00;;;;;;221091;1265;25725;-51
2022/08/26 02:17:44;;;;;;;5.60;3.80;;;26.30;72.10;;;;;;220974;1265;22538;-52
2022/08/26 02:22:47;;;;;;;6.30;3.80;;;26.20;72.00;;;;;;221053;1265;22671;-51
2022/08/26 02:27:50;;;;;;;7.90;4.30;;;26.20;72.00;;;;;;220976;1265;22547;-51
2022/08/26 02:32:53;;;;;;;7.30;4.00;;;26.20;71.90;;;;;;222544;1262;22985;-51
2022/08/26 02:37:56;;;;;;;5.70;3.70;;;26.20;71.90;;;;;;222275;1262;25049;-50
2022/08/26 02:42:59;;;;;;;8.30;4.00;;;26.20;71.90;;;;;;221428;1265;22678;-52
2022/08/26 02:48:10;;;;;;;6.40;3.90;;;26.20;71.90;;;;;;221001;1262;25292;-53
2022/08/26 02:53:14;;;;;;;8.00;4.20;;;26.10;71.20;;;;;;220914;1262;22570;-49
2022/08/26 02:58:17;;;;;;;8.20;4.30;;;26.20;71.90;;;;;;220770;1265;22700;-52
2022/08/26 03:03:19;;;;;;;10.00;4.40;;;26.10;71.70;;;;;;220817;1263;24386;-51
2022/08/26 03:08:25;;;;;;;8.80;4.30;;;26.10;71.70;;;;;;220897;1265;27549;-52
2022/08/26 03:13:29;;;;;;;6.20;4.30;;;26.10;71.80;;;;;;224486;1262;22557;-51
2022/08/26 03:18:32;;;;;;;6.00;4.10;;;26.10;71.50;;;;;;224823;1262;22563;-52
2022/08/26 03:23:34;;;;;;;7.20;4.40;;;26.10;71.40;;;;;;221348;1262;22526;-53
2022/08/26 03:30:38;;;;;;;7.20;4.30;;;26.10;71.40;;;;;;221456;1262;22682;-51
2022/08/26 03:34:00;;;;;;;7.90;4.50;;;26.00;71.30;;;;;;221624;1261;24286;-48
2022/08/26 03:39:02;;;;;;;6.60;4.30;;;26.00;71.20;;;;;;221386;1262;25318;-50
2022/08/26 03:44:07;;;;;;;8.00;4.00;;;26.10;71.70;;;;;;221531;1262;22531;-51
2022/08/26 03:49:10;;;;;;;9.90;4.20;;;26.00;71.30;;;;;;221480;1262;25247;-50
2022/08/26 03:54:12;;;;;;;7.80;4.20;;;26.00;71.30;;;;;;221662;1262;22557;-53
2022/08/26 03:59:14;;;;;;;8.30;4.50;;;26.00;71.20;;;;;;221825;1262;24408;-49
2022/08/26 04:04:17;;;;;;;9.20;4.80;;;26.00;70.90;;;;;;221294;1261;22612;-51
2022/08/26 04:09:26;;;;;;;8.90;5.20;;;26.00;71.30;;;;;;221429;1262;22573;-51
2022/08/26 04:14:29;;;;;;;7.70;4.40;;;26.00;70.80;;;;;;221542;1262;22543;-53
2022/08/26 04:19:33;;;;;;;8.70;4.50;;;26.00;70.50;;;;;;221505;1261;22596;-49
2022/08/26 04:24:38;;;;;;;6.80;4.10;;;26.00;71.20;;;;;;221351;1265;22540;-51
2022/08/26 04:29:41;;;;;;;7.40;4.80;;;26.00;70.70;;;;;;221306;1262;22628;-49
2022/08/26 04:34:43;;;;;;;8.70;4.50;;;26.00;71.00;;;;;;221634;1261;25312;-51
2022/08/26 04:39:50;;;;;;;8.50;5.00;;;25.90;70.60;;;;;;221475;1261;22541;-51
2022/08/26 04:44:54;;;;;;;7.00;4.60;;;25.90;70.40;;;;;;221638;1262;22531;-52
2022/08/26 04:49:56;;;;;;;6.00;4.20;;;25.90;70.70;;;;;;221605;1262;24333;-55
2022/08/26 04:54:59;;;;;;;4.90;3.80;;;25.90;70.90;;;;;;220647;1262;1482407;-48
2022/08/26 05:00:07;;;;;;;5.50;3.90;;;25.90;70.40;;;;;;221423;1262;22684;-51
2022/08/26 05:05:10;;;;;;;6.30;4.00;;;25.90;70.60;;;;;;221273;1262;24362;-50
2022/08/26 05:10:12;;;;;;;5.90;4.50;;;25.90;70.80;;;;;;220957;1262;25296;-53
2022/08/26 05:15:16;;;;;;;6.70;4.10;;;25.90;70.80;;;;;;221145;1262;23985;-50
2022/08/26 05:20:18;;;;;;;7.20;4.10;;;25.90;71.00;;;;;;221273;1261;24230;-49
2022/08/26 05:25:27;;;;;;;7.40;4.10;;;26.00;71.10;;;;;;221376;1262;23911;-51
2022/08/26 05:30:30;;;;;;;8.90;3.80;;;26.00;71.30;;;;;;221548;1265;23938;-48
2022/08/26 05:35:36;;;;;;;8.40;4.20;;;25.90;71.30;;;;;;221314;1262;24269;-50
2022/08/26 05:40:43;;;;;;;5.20;3.80;;;25.90;70.90;;;;;;221441;1262;24389;-50
2022/08/26 05:45:48;;;;;;;7.20;4.00;;;26.00;71.10;;;;;;220925;1265;24201;-51
2022/08/26 05:50:52;;;;;;;9.90;4.60;;;26.00;71.60;;;;;;221466;1265;22881;-50
2022/08/26 05:55:55;;;;;;;6.70;4.50;;;25.90;71.50;;;;;;221024;1265;22551;-51
2022/08/26 06:00:59;;;;;;;8.20;4.50;;;26.00;71.40;;;;;;221256;1264;22839;-49
2022/08/26 06:06:06;;;;;;;8.60;5.00;;;25.90;71.40;;;;;;221102;1265;26555;-51
2022/08/26 06:11:12;;;;;;;11.00;5.40;;;26.00;71.40;;;;;;221556;1262;22550;-52
2022/08/26 06:16:22;;;;;;;11.10;5.90;;;26.00;71.70;;;;;;221298;1265;22560;-48
2022/08/26 06:21:31;;;;;;;13.30;5.40;;;26.00;71.70;;;;;;221001;1264;23062;-50
2022/08/26 06:26:35;;;;;;;12.90;6.70;;;26.00;71.80;;;;;;221452;1264;22528;-51
2022/08/26 06:31:39;;;;;;;17.20;7.80;;;26.00;71.80;;;;;;221161;1262;22767;-48
2022/08/26 06:36:58;;;;;;;20.60;7.20;;;25.90;71.40;;;;;;220959;1262;22529;-51
2022/08/26 06:42:02;;;;;;;17.60;8.50;;;25.80;71.40;;;;;;220705;1265;24401;-51
2022/08/26 06:47:08;;;;;;;12.80;7.40;;;25.80;71.40;;;;;;224556;1265;24383;-53
2022/08/26 06:52:10;;;;;;;18.70;7.80;;;25.90;71.50;;;;;;220863;1262;25297;-49
2022/08/26 06:57:14;;;;;;;15.90;7.80;;;26.00;71.70;;;;;;221053;1262;22547;-52
2022/08/26 07:02:19;;;;;;;14.00;7.60;;;26.00;71.20;;;;;;221061;1265;25081;-55
2022/08/26 07:07:22;;;;;;;13.80;7.70;;;26.00;71.20;;;;;;220871;1262;24360;-49
2022/08/26 07:12:25;;;;;;;18.70;9.10;;;26.00;71.40;;;;;;221567;1262;22645;-51
2022/08/26 07:17:33;;;;;;;13.10;7.30;;;26.10;71.00;;;;;;221447;1261;23938;-49
2022/08/26 07:22:38;;;;;;;14.60;8.30;;;26.00;71.30;;;;;;221477;1262;23907;-52
2022/08/26 07:27:40;;;;;;;19.50;9.90;;;26.10;70.90;;;;;;221080;1262;22558;-50
2022/08/26 07:32:42;;;;;;;17.50;8.80;;;26.20;70.20;;;;;;221097;1261;24204;-49
2022/08/26 07:37:45;;;;;;;17.90;9.00;;;26.10;70.10;;;;;;221136;1262;24243;-51
2022/08/26 07:42:48;;;;;;;13.10;8.70;;;26.10;70.20;;;;;;221413;1262;23022;-51
2022/08/26 07:47:54;;;;;;;15.10;9.20;;;26.20;70.40;;;;;;221581;1262;22690;-50
2022/08/26 07:53:01;;;;;;;16.00;9.50;;;26.20;70.40;;;;;;221460;1261;22836;-53
2022/08/26 07:58:04;;;;;;;17.50;9.20;;;26.30;69.80;;;;;;221086;1261;22564;-52
2022/08/26 08:03:07;;;;;;;20.50;9.50;;;26.30;69.40;;;;;;221030;1262;22684;-50
2022/08/26 08:08:12;;;;;;;23.40;8.90;;;26.40;69.10;;;;;;220873;1264;25208;-51
2022/08/26 08:13:29;;;;;;;17.00;9.20;;;26.40;69.00;;;;;;221046;1265;24214;-52
2022/08/26 08:18:33;;;;;;;19.40;9.30;;;26.40;69.10;;;;;;221254;1265;24413;-51
2022/08/26 08:23:36;;;;;;;20.10;9.90;;;26.40;69.10;;;;;;220728;1262;22472;-49
2022/08/26 08:28:40;;;;;;;16.50;9.00;;;26.50;69.00;;;;;;228571;1265;22619;-52
2022/08/26 08:33:43;;;;;;;22.10;9.10;;;26.60;68.60;;;;;;228675;1262;22495;-51
2022/08/26 08:38:47;;;;;;;21.60;9.00;;;26.70;68.80;;;;;;228697;1263;23084;-50
2022/08/26 08:43:57;;;;;;;17.90;8.80;;;26.80;68.70;;;;;;228574;1262;22397;-49
2022/08/26 08:49:02;;;;;;;12.50;8.40;;;26.80;68.70;;;;;;228846;1261;22461;-49
2022/08/26 08:54:06;;;;;;;15.70;8.00;;;26.90;68.70;;;;;;228871;1261;22374;-51
2022/08/26 08:59:23;;;;;;;15.60;7.90;;;26.90;68.10;;;;;;227447;1261;25443;-50
2022/08/26 09:04:48;;;;;;;14.40;7.90;;;27.00;67.40;;;;;;228791;1261;22497;-51
2022/08/26 09:10:00;;;;;;;14.70;7.80;;;27.10;67.30;;;;;;228794;1261;22343;-51
2022/08/26 09:15:19;;;;;;;12.90;7.60;;;27.30;66.70;;;;;;223764;1261;22609;-51
2022/08/26 09:20:51;;;;;;;12.80;7.80;;;27.30;66.10;;;;;;221164;1262;24251;-50
2022/08/26 09:25:57;;;;;;;15.90;7.20;;;27.30;65.90;;;;;;221424;1262;22700;-52
2022/08/26 09:31:23;;;;;;;12.90;7.70;;;27.30;65.60;;;;;;221253;1262;25313;-51
2022/08/26 09:36:36;;;;;;;12.80;6.50;;;27.50;65.00;;;;;;221449;1262;25276;-48
2022/08/26 09:41:43;;;;;;;12.60;6.90;;;27.50;62.70;;;;;;221442;1262;23826;-50
2022/08/26 09:46:58;;;;;;;14.00;7.10;;;27.60;62.30;;;;;;221020;1265;23948;-53
2022/08/26 09:52:23;;;;;;;16.70;6.90;;;27.60;63.00;;;;;;223092;1265;22686;-52
2022/08/26 09:57:35;;;;;;;20.10;7.40;;;27.70;62.60;;;;;;221016;1265;22537;-50
2022/08/26 10:02:43;;;;;;;18.10;6.60;;;27.70;62.90;;;;;;221232;1265;25386;-50
2022/08/26 10:07:52;;;;;;;13.80;6.80;;;27.60;63.60;;;;;;220991;1262;22550;-51
2022/08/26 10:13:09;;;;;;;12.60;6.30;;;27.80;62.20;;;;;;221300;1262;22547;-50
2022/08/26 10:18:19;;;;;;;16.10;6.50;;;27.80;61.20;;;;;;221536;1261;24289;-51
2022/08/26 10:23:25;;;;;;;13.50;5.40;;;27.90;60.30;;;;;;221388;1262;25287;-48
2022/08/26 10:28:37;;;;;;;12.60;6.20;;;28.00;59.60;;;;;;221456;1262;22693;-52
2022/08/26 10:33:40;;;;;;;16.00;6.10;;;28.10;58.90;;;;;;221467;1262;25351;-47
2022/08/26 10:38:43;;;;;;;16.60;6.60;;;28.10;59.00;;;;;;221437;1262;25244;-49
2022/08/26 10:43:58;;;;;;;13.30;5.30;;;28.20;58.20;;;;;;221036;1265;22707;-50
2022/08/26 10:49:14;;;;;;;8.60;5.10;;;28.30;55.90;;;;;;220677;1265;22541;-48
2022/08/26 10:54:39;;;;;;;8.10;5.20;;;28.20;57.00;;;;;;220879;1265;24215;-50
2022/08/26 10:59:52;;;;;;;13.30;5.30;;;28.10;59.10;;;;;;221360;1262;22614;-52
2022/08/26 11:04:56;;;;;;;;;;;28.20;58.70;;;;;;221483;1262;24214;-48
2022/08/26 11:10:07;;;;;;;9.10;5.20;;;28.10;59.40;;;;;;221469;1262;24724;-51
2022/08/26 11:15:18;;;;;;;11.00;5.40;;;28.10;60.30;;;;;;221444;1262;22528;-51
2022/08/26 11:20:32;;;;;;;12.30;4.90;;;28.00;60.80;;;;;;221499;1263;25321;-47
2022/08/26 11:25:54;;;;;;;12.60;5.80;;;28.10;61.30;;;;;;221471;1262;25311;-49
2022/08/26 11:30:56;;;;;;;13.30;5.50;;;28.10;62.10;;;;;;221252;1262;22706;-53
2022/08/26 11:36:00;;;;;;;8.50;5.10;;;28.20;62.10;;;;;;221330;1262;24236;-51
2022/08/26 11:41:20;;;;;;;16.80;6.00;;;28.20;62.70;;;;;;221323;1262;22532;-51
2022/08/26 11:46:29;;;;;;;10.80;5.10;;;28.20;62.30;;;;;;221080;1262;24272;-46
2022/08/26 11:51:33;;;;;;;12.00;5.10;;;28.20;62.50;;;;;;224146;1261;22552;-48
2022/08/26 11:56:45;;;;;;;10.40;5.00;;;28.20;62.40;;;;;;221630;1264;22552;-52
2022/08/26 12:01:53;;;;;;;6.50;4.80;;;28.20;62.40;;;;;;221327;1262;24800;-47
2022/08/26 12:07:11;;;;;;;8.70;5.30;;;28.20;62.30;;;;;;221460;1262;22639;-51
2022/08/26 12:12:16;;;;;;;6.70;4.70;;;28.20;62.40;;;;;;221481;1262;22613;-50
2022/08/26 12:17:26;;;;;;;7.00;4.80;;;28.20;62.60;;;;;;221433;1261;22681;-49
2022/08/26 12:22:34;;;;;;;9.10;5.10;;;28.20;62.30;;;;;;221216;1262;25246;-48
2022/08/26 12:27:40;;;;;;;8.80;5.00;;;28.30;62.40;;;;;;221375;1261;22986;-47
2022/08/26 12:32:47;;;;;;;7.80;4.90;;;28.20;62.20;;;;;;221696;1262;22548;-47
2022/08/26 12:38:00;;;;;;;8.30;4.80;;;28.20;62.40;;;;;;221212;1262;22691;-50
2022/08/26 12:43:05;;;;;;;9.30;4.50;;;28.30;62.00;;;;;;221675;1262;22544;-47
2022/08/26 12:48:21;;;;;;;9.90;4.80;;;28.30;62.10;;;;;;221494;1262;22659;-48
2022/08/26 12:53:39;;;;;;;9.70;4.60;;;28.30;62.10;;;;;;221296;1262;24272;-46
2022/08/26 12:58:45;;;;;;;7.20;3.80;;;28.30;62.10;;;;;;221079;1262;24249;-48
2022/08/26 13:03:49;;;;;;;7.40;4.80;;;28.30;62.00;;;;;;221455;1262;25352;-47
2022/08/26 13:08:59;;;;;;;9.40;5.10;;;28.30;62.40;;;;;;221434;1262;22710;-50
2022/08/26 13:14:08;;;;;;;10.50;4.20;;;28.30;61.60;;;;;;221252;1262;22681;-50
2022/08/26 13:19:14;;;;;;;6.90;4.20;;;28.30;62.00;;;;;;221271;1262;22549;-46
2022/08/26 13:24:39;;;;;;;5.90;4.10;;;28.20;62.10;;;;;;221612;1262;22601;-50
2022/08/26 13:29:42;;;;;;;6.00;4.70;;;28.20;62.20;;;;;;221537;1262;24299;-48
2022/08/26 13:34:50;;;;;;;7.00;4.30;;;28.20;62.30;;;;;;221373;1265;24232;-48
2022/08/26 13:40:05;;;;;;;7.10;4.40;;;28.30;62.50;;;;;;220914;1262;22700;-48
2022/08/26 13:45:09;;;;;;;7.20;4.40;;;28.20;62.20;;;;;;221615;1262;22547;-45
2022/08/26 13:50:11;;;;;;;6.90;4.00;;;28.20;62.20;;;;;;221662;1262;22620;-47
2022/08/26 13:55:14;;;;;;;5.80;4.40;;;28.30;62.00;;;;;;221186;1265;25519;-50
2022/08/26 14:00:17;;;;;;;5.90;4.10;;;28.30;62.60;;;;;;221094;1265;23922;-46
2022/08/26 14:05:20;;;;;;;6.40;4.20;;;28.20;62.70;;;;;;221155;1265;25471;-49
2022/08/26 14:10:23;;;;;;;8.40;3.90;;;28.30;63.00;;;;;;221353;1262;22567;-50
2022/08/26 14:15:26;;;;;;;5.80;4.10;;;28.30;61.90;;;;;;220950;1262;25314;-46
2022/08/26 14:20:32;;;;;;;6.90;4.50;;;28.30;61.70;;;;;;220990;1265;22552;-50
2022/08/26 14:25:34;;;;;;;6.50;4.40;;;28.30;61.40;;;;;;221229;1262;25235;-49
2022/08/26 14:30:40;;;;;;;7.60;4.30;;;28.20;61.30;;;;;;221024;1265;25306;-47
2022/08/26 14:35:42;;;;;;;6.50;4.10;;;28.30;61.50;;;;;;220906;1265;25281;-51
2022/08/26 14:40:50;;;;;;;5.90;4.10;;;28.20;61.50;;;;;;221429;1265;22522;-48
2022/08/26 14:45:53;;;;;;;6.60;4.20;;;28.20;61.70;;;;;;221108;1265;22687;-49
2022/08/26 14:50:56;;;;;;;5.80;3.90;;;28.20;61.70;;;;;;221268;1263;22636;-49
2022/08/26 14:56:04;;;;;;;5.00;4.40;;;28.20;61.70;;;;;;221180;1262;25251;-48
2022/08/26 15:01:11;;;;;;;6.50;3.90;;;28.20;61.60;;;;;;220949;1264;22807;-47
2022/08/26 15:06:16;;;;;;;6.20;4.30;;;28.20;61.80;;;;;;220924;1265;22538;-47
2022/08/26 15:11:21;;;;;;;6.60;4.40;;;28.20;61.40;;;;;;221438;1264;22675;-47
2022/08/26 15:16:25;;;;;;;12.40;4.50;;;27.90;60.10;;;;;;221296;1262;22561;-48
2022/08/26 15:21:32;;;;;;;9.00;3.90;;;27.20;57.80;;;;;;220865;1267;26490;-50
2022/08/26 15:26:34;;;;;;;8.40;3.90;;;26.80;57.10;;;;;;221376;1262;25400;-47
2022/08/26 15:31:37;;;;;;;8.50;3.70;;;26.40;54.50;;;;;;221471;1265;22710;-46
2022/08/26 15:36:44;;;;;;;13.60;4.20;;;25.70;54.30;;;;;;220891;1265;22570;-45
2022/08/26 15:41:47;;;;;;;7.40;4.40;;;25.40;53.50;;;;;;221018;1265;23961;-46
2022/08/26 15:46:50;;;;;;;10.10;3.80;;;25.20;52.70;;;;;;221381;1265;22544;-48
2022/08/26 15:51:56;;;;;;;9.50;3.80;;;25.00;51.80;;;;;;221006;1265;22531;-47
2022/08/26 15:57:01;;;;;;;7.00;3.80;;;25.50;56.70;;;;;;220795;1265;26154;-49
2022/08/26 16:02:04;;;;;;;7.20;3.80;;;25.10;53.30;;;;;;221118;1265;22556;-46
2022/08/26 16:07:07;;;;;;;9.40;4.10;;;25.40;57.70;;;;;;220923;1265;26107;-46
2022/08/26 16:12:10;;;;;;;14.40;4.00;;;25.30;58.70;;;;;;220982;1262;22568;-45
2022/08/26 16:17:22;;;;;;;10.10;3.70;;;25.10;55.10;;;;;;221460;1265;23036;-47
2022/08/26 16:22:25;;;;;;;7.20;3.10;;;25.30;57.20;;;;;;220992;1265;24275;-47
2022/08/26 16:27:33;;;;;;;8.70;3.40;;;25.10;59.80;;;;;;221027;1262;24867;-48
2022/08/26 16:32:35;;;;;;;7.50;3.50;;;24.90;56.60;;;;;;221125;1265;24215;-49
2022/08/26 16:37:46;;;;;;;7.10;3.30;;;25.00;56.90;;;;;;221184;1265;22557;-50
2022/08/26 16:42:49;;;;;;;11.30;3.50;;;25.10;60.50;;;;;;221315;1265;22586;-46
2022/08/26 16:47:52;;;;;;;6.60;4.10;;;25.10;61.60;;;;;;221144;1265;24357;-46
2022/08/26 16:53:20;;;;;;;6.80;3.50;;;24.90;61.10;;;;;;221210;1265;24130;-49
2022/08/26 16:58:24;;;;;;;5.30;3.00;;;24.80;60.20;;;;;;220792;1262;22590;-47
2022/08/26 17:03:35;;;;;;;7.30;3.50;;;24.80;58.20;;;;;;221395;1262;22575;-49
2022/08/26 17:08:46;;;;;;;5.80;3.10;;;24.90;59.40;;;;;;221982;1265;24408;-46
2022/08/26 17:13:53;;;;;;;5.80;3.10;;;24.90;61.00;;;;;;221185;1262;25567;-47
2022/08/26 17:18:57;;;;;;;5.20;3.30;;;24.90;63.80;;;;;;221145;1265;22543;-49
2022/08/26 17:24:04;;;;;;;4.70;3.20;;;24.80;63.20;;;;;;221025;1264;22528;-47
2022/08/26 17:29:10;;;;;;;9.50;3.40;;;24.60;62.20;;;;;;221214;1261;24435;-47
2022/08/26 17:34:18;;;;;;;5.70;3.50;;;24.60;59.80;;;;;;220800;1265;25113;-47
2022/08/26 17:39:22;;;;;;;10.10;3.30;;;25.10;62.20;;;;;;221346;1265;22531;-47
2022/08/26 17:44:25;;;;;;;5.90;2.90;;;25.60;61.60;;;;;;220991;1265;24208;-50
2022/08/26 17:49:28;;;;;;;7.40;3.10;;;25.80;61.00;;;;;;221462;1265;24227;-48
2022/08/26 17:54:30;;;;;;;6.00;3.00;;;26.00;60.80;;;;;;220995;1265;22553;-46
2022/08/26 17:59:33;;;;;;;3.50;2.70;;;26.10;60.80;;;;;;221054;1265;24283;-51
2022/08/26 18:04:35;;;;;;;8.50;3.30;;;26.20;61.00;;;;;;220965;1265;22698;-51
2022/08/26 18:09:38;;;;;;;5.50;3.30;;;26.30;61.00;;;;;;221089;1265;22554;-47
2022/08/26 18:14:40;;;;;;;14.90;3.50;;;26.50;61.10;;;;;;221248;1265;25244;-46
2022/08/26 18:19:43;;;;;;;6.00;2.90;;;26.50;61.20;;;;;;220745;1265;22543;-50
2022/08/26 18:24:51;;;;;;;6.20;3.50;;;26.60;62.10;;;;;;221128;1265;24401;-47
2022/08/26 18:30:04;;;;;;;8.60;3.50;;;26.60;61.80;;;;;;220993;1265;22550;-47
2022/08/26 18:35:19;;;;;;;6.50;3.40;;;26.70;62.00;;;;;;220922;1265;25349;-47
2022/08/26 18:40:25;;;;;;;12.50;3.30;;;26.80;62.40;;;;;;220859;1265;24208;-49
2022/08/26 18:45:33;;;;;;;9.00;3.10;;;26.90;62.10;;;;;;220993;1265;22645;-50
2022/08/26 18:50:40;;;;;;;12.20;3.20;;;27.00;62.90;;;;;;221125;1262;22806;-47
2022/08/26 18:55:45;;;;;;;8.30;3.60;;;27.00;63.10;;;;;;221353;1264;22691;-49
2022/08/26 19:00:47;;;;;;;5.90;3.80;;;27.10;63.90;;;;;;221478;1265;22532;-47
2022/08/26 19:05:50;;;;;;;6.40;3.20;;;27.10;64.90;;;;;;221026;1262;25098;-50
2022/08/26 19:11:02;;;;;;;6.20;3.20;;;27.20;64.70;;;;;;221158;1262;24013;-52
2022/08/26 19:16:19;;;;;;;11.00;3.50;;;27.20;65.20;;;;;;221176;1262;22693;-48
2022/08/26 19:21:25;;;;;;;7.40;4.00;;;27.20;64.90;;;;;;221073;1262;24218;-52
2022/08/26 19:26:29;;;;;;;11.20;3.60;;;27.20;65.00;;;;;;220819;1265;22544;-51
2022/08/26 19:31:33;;;;;;;7.20;3.70;;;27.20;65.00;;;;;;220918;1263;22573;-48
2022/08/26 19:36:38;;;;;;;6.60;3.10;;;27.30;64.90;;;;;;220893;1265;22535;-47
2022/08/26 19:41:58;;;;;;;7.00;3.10;;;27.30;64.80;;;;;;221099;1264;22548;-46
2022/08/26 19:47:09;;;;;;;10.20;4.10;;;27.30;65.00;;;;;;221030;1262;26551;-48
2022/08/26 19:52:12;;;;;;;11.20;4.00;;;27.30;66.50;;;;;;220818;1262;23905;-50
2022/08/26 19:57:17;;;;;;;10.70;3.50;;;27.30;65.70;;;;;;221346;1262;24277;-49
2022/08/26 20:02:19;;;;;;;11.10;3.70;;;27.20;65.50;;;;;;221187;1261;25354;-47
2022/08/26 20:07:22;;;;;;;14.70;4.50;;;27.20;66.10;;;;;;221053;1263;22811;-51
2022/08/26 20:12:26;;;;;;;8.70;3.50;;;27.30;65.40;;;;;;221064;1262;22617;-49
2022/08/26 20:17:30;;;;;;;11.60;4.20;;;27.30;65.30;;;;;;221576;1261;25232;-47
2022/08/26 20:22:33;;;;;;;11.10;3.90;;;27.20;65.00;;;;;;221118;1261;22544;-50
2022/08/26 20:27:36;;;;;;;13.60;4.60;;;27.30;64.50;;;;;;221054;1262;23525;-49
2022/08/26 20:32:40;;;;;;;12.50;4.60;;;27.30;64.40;;;;;;221206;1261;24344;-46
2022/08/26 20:37:43;;;;;;;12.40;5.20;;;27.20;65.20;;;;;;221189;1262;22683;-48
2022/08/26 20:42:46;;;;;;;10.40;4.80;;;27.20;67.20;;;;;;221090;1262;25241;-47
2022/08/26 20:47:49;;;;;;;14.40;5.60;;;27.30;67.30;;;;;;220887;1262;24034;-50
2022/08/26 20:52:52;;;;;;;10.40;5.20;;;27.30;67.00;;;;;;220797;1262;25307;-46
2022/08/26 20:57:55;;;;;;;12.20;4.80;;;27.30;67.70;;;;;;220993;1261;24268;-48
2022/08/26 21:02:59;;;;;;;11.30;4.90;;;27.30;67.40;;;;;;221085;1262;22551;-47
2022/08/26 21:08:02;;;;;;;13.60;4.80;;;27.30;66.90;;;;;;222395;1261;25475;-52
2022/08/26 21:13:06;;;;;;;11.80;5.10;;;27.30;67.00;;;;;;221501;1262;22556;-51
2022/08/26 21:18:10;;;;;;;9.80;4.80;;;27.30;66.40;;;;;;220933;1261;24297;-48
2022/08/26 21:23:20;;;;;;;12.40;4.30;;;27.30;66.20;;;;;;221561;1261;22528;-47
2022/08/26 21:28:22;;;;;;;14.70;5.40;;;27.30;66.30;;;;;;220990;1265;22573;-48
2022/08/26 21:33:25;;;;;;;11.80;5.30;;;27.20;66.20;;;;;;221346;1262;24615;-48
2022/08/26 21:38:35;;;;;;;10.80;4.90;;;27.30;66.10;;;;;;221287;1262;26559;-50
2022/08/26 21:43:41;;;;;;;11.30;5.50;;;27.20;66.30;;;;;;221358;1262;25290;-47
2022/08/26 21:48:53;;;;;;;11.90;4.80;;;27.30;65.90;;;;;;221103;1262;22579;-48
2022/08/26 21:53:57;;;;;;;10.10;5.80;;;27.20;65.70;;;;;;221244;1262;25241;-51
2022/08/26 21:59:00;;;;;;;9.50;5.50;;;27.20;65.40;;;;;;221306;1262;23903;-45
2022/08/26 22:04:06;;;;;;;10.50;5.20;;;27.20;65.60;;;;;;220898;1262;22559;-49
2022/08/26 22:09:10;;;;;;;10.50;6.20;;;27.20;65.20;;;;;;221088;1262;24335;-46
2022/08/26 22:14:14;;;;;;;12.00;5.60;;;27.20;64.90;;;;;;221337;1262;22537;-50
2022/08/26 22:19:21;;;;;;;9.10;4.70;;;27.30;64.90;;;;;;221301;1262;22548;-47
2022/08/26 22:24:32;;;;;;;15.40;5.60;;;27.20;64.70;;;;;;221181;1262;24240;-47
2022/08/26 22:29:40;;;;;;;10.90;5.30;;;27.20;64.50;;;;;;221109;1265;25322;-49
2022/08/26 22:34:44;;;;;;;12.40;6.00;;;27.20;64.20;;;;;;221045;1265;22646;-47
2022/08/26 22:39:51;;;;;;;13.70;5.00;;;27.20;64.20;;;;;;221270;1265;24252;-47
2022/08/26 22:45:01;;;;;;;11.20;5.30;;;27.20;64.00;;;;;;220907;1265;22543;-49
2022/08/26 22:50:06;;;;;;;7.70;5.00;;;27.20;64.00;;;;;;221050;1262;24188;-49
2022/08/26 22:55:12;;;;;;;6.60;4.60;;;27.20;64.00;;;;;;221085;1262;22540;-50
2022/08/26 23:00:15;;;;;;;10.60;5.30;;;27.20;63.90;;;;;;221064;1262;24305;-49
2022/08/26 23:05:17;;;;;;;8.00;4.50;;;27.20;63.90;;;;;;221330;1262;22550;-51
2022/08/26 23:10:23;;;;;;;9.70;4.50;;;27.20;63.80;;;;;;220972;1262;25329;-48
2022/08/26 23:15:28;;;;;;;10.90;5.40;;;27.20;63.60;;;;;;220822;1265;24262;-48
2022/08/26 23:20:32;;;;;;;8.70;4.90;;;27.20;63.80;;;;;;221290;1262;22573;-48
2022/08/26 23:25:34;;;;;;;8.30;4.90;;;27.20;63.40;;;;;;221393;1261;24261;-46
2022/08/26 23:30:38;;;;;;;7.40;5.00;;;27.20;63.20;;;;;;221291;1262;22580;-50
2022/08/26 23:35:40;;;;;;;9.20;5.10;;;27.20;63.30;;;;;;221207;1262;22544;-49
2022/08/26 23:40:43;;;;;;;16.80;6.30;;;27.20;63.20;;;;;;221336;1261;24139;-47
2022/08/26 23:45:46;;;;;;;11.80;5.50;;;27.20;65.50;;;;;;221053;1265;24296;-51
2022/08/26 23:56:31;;;;;;;14.20;5.70;;;27.20;65.50;;;;;;220964;1265;25468;-49
